This is the latest recevied weather packets stored in our database for station/object DO6MJ-1. If no packets are shown the sender has not sent any weather packets the latest 10 day(s).
| Time | Temp. | Humidity | Pressure | Rain* | Wind** | Luminosity | Snow |
|---|---|---|---|---|---|---|---|
| 1778093013 | 8.89° C | 95% | 1000.4 hPa | 2.03 mm | - | - | - |
| 1778091814 | 9.44° C | 95% | 1000.1 hPa | 2.03 mm | - | - | - |
| 1778090612 | 9.44° C | 95% | 1000.2 hPa | 1.02 mm | - | - | - |
| 1778089412 | 9.44° C | 95% | 1000.2 hPa | 0.51 mm | - | - | - |
| 1778088212 | 9.44° C | 95% | 999.9 hPa | 1.02 mm | - | - | - |
| 1778087011 | 9.44° C | 95% | 999.7 hPa | 1.52 mm | - | - | - |
| 1778085811 | 9.44° C | 95% | 999.7 hPa | 1.52 mm | - | - | - |
| 1778084611 | 9.44° C | 95% | 999.8 hPa | 1.02 mm | - | - | - |
| 1778083411 | 9.44° C | 95% | 999.8 hPa | 1.02 mm | - | - | - |
| 1778082210 | 9.44° C | 94% | 999.8 hPa | 1.02 mm | - | - | - |
| 1778081010 | 9.44° C | 94% | 999.8 hPa | 0.51 mm | - | - | - |
| 1778079810 | 9.44° C | 94% | 999.8 hPa | 0 mm | - | - | - |
| 1778078610 | 9.44° C | 94% | 999.9 hPa | 0 mm | - | - | - |
| 1778077409 | 9.44° C | 94% | 999.9 hPa | 0.51 mm | - | - | - |
| 1778076209 | 9.44° C | 94% | 999.9 hPa | 0.51 mm | - | - | - |
| 1778075008 | 9.44° C | 94% | 999.9 hPa | 0.51 mm | - | - | - |
| 1778073808 | 9.44° C | 94% | 1000 hPa | 0 mm | - | - | - |
| 1778072608 | 9.44° C | 94% | 1000 hPa | 0 mm | - | - | - |
| 1778071408 | 9.44° C | 94% | 1000 hPa | 0 mm | - | - | - |
| 1778070207 | 9.44° C | 94% | 999.9 hPa | 0 mm | - | - | - |
| 1778069007 | 9.44° C | 94% | 999.7 hPa | 0 mm | - | - | - |
| 1778067807 | 9.44° C | 94% | 999.9 hPa | 0 mm | - | - | - |
| 1778066607 | 9.44° C | 94% | 999.8 hPa | 0 mm | - | - | - |
| 1778065407 | 9.44° C | 94% | 999.7 hPa | 0.51 mm | - | - | - |
| 1778064206 | 8.89° C | 94% | 999.7 hPa | 0.51 mm | - | - | - |
* Rain latest hour (hover to see other rain measurements)
** Current wind speed in m/s (hover to see current wind gust speed)